createdAt,value
2023-03-01T00:01:24.420Z,15.98
2023-03-01T00:03:53.366Z,14.70
2023-03-01T00:06:22.505Z,15.93
2023-03-01T00:08:51.744Z,18.38
2023-03-01T00:11:22.006Z,16.92
2023-03-01T00:13:52.854Z,15.27
2023-03-01T00:16:25.513Z,14.68
2023-03-01T00:18:54.363Z,18.33
2023-03-01T00:21:23.465Z,13.07
2023-03-01T00:23:52.665Z,15.77
2023-03-01T00:26:22.224Z,15.13
2023-03-01T00:28:50.403Z,15.27
2023-03-01T00:31:20.515Z,17.02
2023-03-01T00:33:50.717Z,16.17
2023-03-01T00:36:18.758Z,17.95
2023-03-01T00:38:47.936Z,15.05
2023-03-01T00:41:18.949Z,14.48
2023-03-01T00:43:47.632Z,15.65
2023-03-01T00:46:17.677Z,14.13
2023-03-01T00:48:46.514Z,13.90
2023-03-01T00:51:18.490Z,14.18
2023-03-01T00:53:48.038Z,14.65
2023-03-01T00:56:17.420Z,14.10
2023-03-01T00:58:46.114Z,15.00
2023-03-01T01:01:19.214Z,14.10
2023-03-01T01:03:49.367Z,15.75
2023-03-01T01:06:22.498Z,17.38
2023-03-01T01:08:51.466Z,14.27
2023-03-01T01:11:21.124Z,14.63
2023-03-01T01:13:50.726Z,17.42
2023-03-01T01:16:20.577Z,15.20
2023-03-01T01:18:49.108Z,17.10
2023-03-01T01:21:21.091Z,17.50
2023-03-01T01:23:49.973Z,17.00
2023-03-01T01:26:20.323Z,16.13
2023-03-01T01:28:49.609Z,17.80
2023-03-01T01:31:18.368Z,16.33
2023-03-01T01:33:47.410Z,16.73
2023-03-01T01:36:15.854Z,16.77
2023-03-01T01:38:45.588Z,16.08
2023-03-01T01:41:15.061Z,16.98
2023-03-01T01:43:45.563Z,18.98
2023-03-01T01:46:24.242Z,17.25
2023-03-01T01:48:58.059Z,17.52
2023-03-01T01:51:30.208Z,15.75
2023-03-01T01:54:03.137Z,16.90
2023-03-01T01:56:32.151Z,15.60
2023-03-01T01:59:00.672Z,17.45
2023-03-01T02:01:29.765Z,16.15
2023-03-01T02:03:58.178Z,16.10
2023-03-01T02:06:32.572Z,16.13
2023-03-01T02:09:07.394Z,16.92
2023-03-01T02:11:38.686Z,16.10
2023-03-01T02:14:07.430Z,16.02
2023-03-01T02:16:35.946Z,14.93
2023-03-01T02:19:07.350Z,15.15
2023-03-01T02:21:44.232Z,17.55
2023-03-01T02:24:25.634Z,14.10
2023-03-01T02:26:57.725Z,15.27
2023-03-01T02:29:29.057Z,17.38
2023-03-01T02:31:59.375Z,14.55
2023-03-01T02:34:30.219Z,16.77
2023-03-01T02:37:02.418Z,15.93
2023-03-01T02:39:36.021Z,15.55
2023-03-01T02:42:06.222Z,16.35
2023-03-01T02:44:36.338Z,18.08
2023-03-01T02:47:07.168Z,15.43
2023-03-01T02:49:38.450Z,14.25
2023-03-01T02:52:32.640Z,13.60
2023-03-01T02:55:05.321Z,15.07
2023-03-01T02:57:36.206Z,14.25
2023-03-01T03:00:09.929Z,16.70
2023-03-01T03:02:39.563Z,15.70
2023-03-01T03:05:14.820Z,15.90
2023-03-01T03:07:45.690Z,14.40
2023-03-01T03:10:15.944Z,14.65
2023-03-01T03:12:45.048Z,15.93
2023-03-01T03:15:14.774Z,17.65
2023-03-01T03:17:45.985Z,17.35
2023-03-01T03:20:20.225Z,17.15
2023-03-01T03:22:49.426Z,16.45
2023-03-01T03:25:18.990Z,14.60
2023-03-01T03:27:49.865Z,15.05
2023-03-01T03:30:22.818Z,15.80
2023-03-01T03:32:54.404Z,18.55
2023-03-01T03:35:25.444Z,15.57
2023-03-01T03:38:07.464Z,18.05
2023-03-01T03:40:37.359Z,16.90
2023-03-01T03:43:07.006Z,15.75
2023-03-01T03:45:37.362Z,16.33
2023-03-01T03:48:08.456Z,15.98
2023-03-01T03:50:37.068Z,16.30
2023-03-01T03:53:07.692Z,18.23
2023-03-01T03:55:36.541Z,17.73
2023-03-01T03:58:08.014Z,17.17
2023-03-01T04:00:39.520Z,14.02
2023-03-01T04:03:08.596Z,15.43
2023-03-01T04:05:38.385Z,16.95
2023-03-01T04:08:08.433Z,16.48
2023-03-01T04:10:38.974Z,19.90
2023-03-01T04:13:08.171Z,18.42
2023-03-01T04:15:38.341Z,17.50
2023-03-01T04:18:07.022Z,17.40
2023-03-01T04:20:37.433Z,17.45
2023-03-01T04:23:14.230Z,15.70
2023-03-01T04:25:44.044Z,17.23
2023-03-01T04:28:12.265Z,14.05
2023-03-01T04:30:42.500Z,16.17
2023-03-01T04:33:12.154Z,16.63
2023-03-01T04:35:41.624Z,19.23
2023-03-01T04:38:10.652Z,16.52
2023-03-01T04:40:39.736Z,15.60
2023-03-01T04:43:07.987Z,18.77
2023-03-01T04:45:36.761Z,17.20
2023-03-01T04:48:07.233Z,17.85
2023-03-01T04:50:35.463Z,33.65
2023-03-01T04:53:04.094Z,37.13
2023-03-01T04:55:32.768Z,33.20
2023-03-01T04:58:00.863Z,20.58
2023-03-01T05:00:29.414Z,18.15
2023-03-01T05:02:58.925Z,18.10
2023-03-01T05:05:32.507Z,17.30
2023-03-01T05:08:03.045Z,16.55
2023-03-01T05:10:33.072Z,20.25
2023-03-01T05:13:01.897Z,19.08
2023-03-01T05:15:31.953Z,19.50
2023-03-01T05:18:01.888Z,16.52
2023-03-01T05:20:32.339Z,18.17
2023-03-01T05:23:06.296Z,19.88
2023-03-01T05:25:41.228Z,18.73
2023-03-01T05:28:13.308Z,18.65
2023-03-01T05:30:41.764Z,18.05
2023-03-01T05:33:14.664Z,19.70
2023-03-01T05:35:45.984Z,19.23
2023-03-01T05:38:15.267Z,19.17
2023-03-01T05:40:44.709Z,18.52
2023-03-01T05:43:14.970Z,20.25
2023-03-01T05:45:43.595Z,18.20
2023-03-01T05:48:13.782Z,18.17
2023-03-01T05:50:46.675Z,19.20
2023-03-01T05:53:16.887Z,19.13
2023-03-01T05:55:47.211Z,16.50
2023-03-01T05:58:17.285Z,18.90
2023-03-01T06:00:46.793Z,18.40
2023-03-01T06:03:16.873Z,18.83
2023-03-01T06:05:47.012Z,17.52
2023-03-01T06:08:15.844Z,17.85
2023-03-01T06:10:43.953Z,19.77
2023-03-01T06:13:12.341Z,18.60
2023-03-01T06:15:40.621Z,19.13
2023-03-01T06:18:09.404Z,17.20
2023-03-01T06:20:37.576Z,17.55
2023-03-01T06:23:08.361Z,19.52
2023-03-01T06:25:37.290Z,18.73
2023-03-01T06:28:05.856Z,18.67
2023-03-01T06:30:34.147Z,18.27
2023-03-01T06:33:02.881Z,19.17
2023-03-01T06:35:32.259Z,17.55
2023-03-01T06:38:01.929Z,21.25
2023-03-01T06:40:33.699Z,17.55
2023-03-01T06:43:02.042Z,18.15
2023-03-01T06:45:30.070Z,17.70
2023-03-01T06:48:06.111Z,19.80
2023-03-01T06:50:34.865Z,20.45
2023-03-01T06:53:03.260Z,19.90
2023-03-01T06:55:33.714Z,20.70
2023-03-01T06:58:03.108Z,22.33
2023-03-01T07:00:31.725Z,21.23
2023-03-01T07:03:01.593Z,22.67
2023-03-01T07:05:30.698Z,23.08
2023-03-01T07:07:59.156Z,25.05
2023-03-01T07:10:27.839Z,27.83
2023-03-01T07:12:58.822Z,28.85
2023-03-01T07:15:28.303Z,28.40
2023-03-01T07:17:56.543Z,26.67
2023-03-01T07:20:26.320Z,30.00
2023-03-01T07:22:55.544Z,29.23
2023-03-01T07:25:23.929Z,28.13
2023-03-01T07:27:53.250Z,33.22
2023-03-01T07:30:27.016Z,35.28
2023-03-01T07:32:55.901Z,42.70
2023-03-01T07:35:24.569Z,39.72
2023-03-01T07:37:53.046Z,34.22
2023-03-01T07:40:21.833Z,33.65
2023-03-01T07:42:50.290Z,31.23
2023-03-01T07:45:18.590Z,28.25
2023-03-01T07:47:48.064Z,30.08
2023-03-01T07:50:16.666Z,30.45
2023-03-01T07:52:47.510Z,34.08
2023-03-01T07:55:17.169Z,30.88
2023-03-01T07:57:45.300Z,32.25
2023-03-01T08:00:15.327Z,31.90
2023-03-01T08:02:43.484Z,32.13
2023-03-01T08:05:12.949Z,33.47
2023-03-01T08:07:41.460Z,34.20
2023-03-01T08:10:11.315Z,31.80
2023-03-01T08:12:39.551Z,31.27
2023-03-01T08:15:09.251Z,36.92
2023-03-01T08:17:37.827Z,37.72
2023-03-01T08:20:08.136Z,36.05
2023-03-01T08:22:37.934Z,34.22
2023-03-01T08:25:06.920Z,32.15
2023-03-01T08:27:35.098Z,31.27
2023-03-01T08:30:03.466Z,32.08
2023-03-01T08:32:32.076Z,30.80
2023-03-01T08:35:00.740Z,31.65
2023-03-01T08:37:32.041Z,34.47
2023-03-01T08:40:01.639Z,35.55
2023-03-01T08:42:30.709Z,35.03
2023-03-01T08:44:59.120Z,34.13
2023-03-01T08:47:27.344Z,36.05
2023-03-01T08:49:55.605Z,35.45
2023-03-01T08:52:25.597Z,34.47
2023-03-01T08:54:53.731Z,35.47
2023-03-01T08:57:23.414Z,29.80
2023-03-01T08:59:51.791Z,27.38
2023-03-01T09:02:20.671Z,25.00
2023-03-01T09:04:48.975Z,26.73
2023-03-01T09:07:17.072Z,22.98
2023-03-01T09:09:45.884Z,28.40
2023-03-01T09:12:14.430Z,25.35
2023-03-01T09:14:43.963Z,23.90
2023-03-01T09:17:12.595Z,23.15
2023-03-01T09:19:40.807Z,24.65
2023-03-01T09:22:09.030Z,23.60
2023-03-01T09:24:37.650Z,23.88
2023-03-01T09:27:09.712Z,21.98
2023-03-01T09:29:38.015Z,22.65
2023-03-01T09:32:09.198Z,20.45
2023-03-01T09:34:58.465Z,20.05
2023-03-01T09:37:26.605Z,20.33
2023-03-01T09:39:54.949Z,19.80
2023-03-01T09:42:24.567Z,22.52
2023-03-01T09:44:58.663Z,23.15
2023-03-01T09:47:31.105Z,23.13
2023-03-01T09:50:06.879Z,27.08
2023-03-01T09:52:41.923Z,25.27
2023-03-01T09:55:13.945Z,24.83
2023-03-01T09:57:49.868Z,21.50
2023-03-01T10:00:32.091Z,24.15
2023-03-01T10:03:11.192Z,22.58
2023-03-01T10:05:46.901Z,20.38
2023-03-01T10:08:32.133Z,22.85
2023-03-01T10:11:01.218Z,22.23
2023-03-01T10:13:35.473Z,22.13
2023-03-01T10:16:12.402Z,23.10
2023-03-01T10:18:43.426Z,26.42
2023-03-01T10:21:18.422Z,26.05
2023-03-01T10:23:47.566Z,22.75
2023-03-01T10:26:33.374Z,24.63
2023-03-01T10:29:05.441Z,24.23
2023-03-01T10:31:41.499Z,23.05
2023-03-01T10:34:13.903Z,23.45
2023-03-01T10:36:44.362Z,23.23
2023-03-01T10:39:16.609Z,22.35
2023-03-01T10:41:56.938Z,20.90
2023-03-01T10:44:44.980Z,20.55
2023-03-01T10:47:21.450Z,23.05
2023-03-01T10:50:19.762Z,21.65
2023-03-01T10:53:00.250Z,21.65
2023-03-01T10:55:33.802Z,21.08
2023-03-01T10:58:10.718Z,22.83
2023-03-01T11:00:50.181Z,22.60
2023-03-01T11:03:22.745Z,19.90
2023-03-01T11:06:02.642Z,20.90
2023-03-01T11:08:43.711Z,20.20
2023-03-01T11:11:32.637Z,19.00
2023-03-01T11:14:06.574Z,20.90
2023-03-01T11:16:40.412Z,19.42
2023-03-01T11:19:21.915Z,18.92
2023-03-01T11:22:00.767Z,24.08
2023-03-01T11:24:35.676Z,20.30
2023-03-01T11:27:07.148Z,20.50
2023-03-01T11:29:48.556Z,19.10
2023-03-01T11:32:18.810Z,19.55
2023-03-01T11:34:52.606Z,21.55
2023-03-01T11:37:34.878Z,19.92
2023-03-01T11:40:13.966Z,19.60
2023-03-01T11:42:52.568Z,18.90
2023-03-01T11:45:25.995Z,18.40
2023-03-01T11:48:26.245Z,18.35
2023-03-01T11:50:57.435Z,18.95
2023-03-01T11:53:53.534Z,20.08
2023-03-01T11:56:31.285Z,17.75
2023-03-01T11:59:34.218Z,19.45
2023-03-01T12:02:24.333Z,22.08
2023-03-01T12:05:16.014Z,24.27
2023-03-01T12:07:55.246Z,22.35
2023-03-01T12:10:29.160Z,21.95
2023-03-01T12:13:13.516Z,20.02
2023-03-01T12:16:37.451Z,18.15
2023-03-01T12:19:36.753Z,17.38
2023-03-01T12:22:32.141Z,17.08
2023-03-01T12:25:18.370Z,19.13
2023-03-01T12:28:13.883Z,19.27
2023-03-01T12:30:56.608Z,17.02
2023-03-01T12:33:35.448Z,19.45
2023-03-01T12:36:37.502Z,17.30
2023-03-01T12:39:20.513Z,17.63
2023-03-01T12:41:54.860Z,18.67
2023-03-01T12:44:47.643Z,18.27
2023-03-01T12:47:36.570Z,18.50
2023-03-01T12:50:13.474Z,17.25
2023-03-01T12:52:46.315Z,17.45
2023-03-01T12:55:28.417Z,17.52
2023-03-01T12:58:08.799Z,18.90
2023-03-01T13:00:48.375Z,18.33
2023-03-01T13:03:25.721Z,19.27
2023-03-01T13:06:07.021Z,19.63
2023-03-01T13:08:42.864Z,18.65
2023-03-01T13:11:20.001Z,20.00
2023-03-01T13:13:49.848Z,15.93
2023-03-01T13:16:44.033Z,16.27
2023-03-01T13:19:16.707Z,15.82
2023-03-01T13:21:46.195Z,14.85
2023-03-01T13:24:30.174Z,16.33
2023-03-01T13:27:30.444Z,17.13
2023-03-01T13:30:04.687Z,17.02
2023-03-01T13:32:44.223Z,14.85
2023-03-01T13:35:46.895Z,16.38
2023-03-01T13:38:42.248Z,14.80
2023-03-01T13:41:10.981Z,16.05
2023-03-01T13:43:41.121Z,16.45
2023-03-01T13:46:18.986Z,16.98
2023-03-01T13:48:52.718Z,19.00
2023-03-01T13:51:25.958Z,17.08
2023-03-01T13:53:56.196Z,15.60
2023-03-01T13:56:29.305Z,16.25
2023-03-01T13:59:04.069Z,17.10
2023-03-01T14:01:35.407Z,15.70
2023-03-01T14:04:20.476Z,16.27
2023-03-01T14:06:48.896Z,16.35
2023-03-01T14:09:24.834Z,17.27
2023-03-01T14:12:16.272Z,16.00
2023-03-01T14:14:50.475Z,17.15
2023-03-01T14:17:54.111Z,14.70
2023-03-01T14:20:25.825Z,15.23
2023-03-01T14:22:56.954Z,15.13
2023-03-01T14:25:28.709Z,15.60
2023-03-01T14:28:05.875Z,15.70
2023-03-01T14:30:39.973Z,14.43
2023-03-01T14:33:20.713Z,17.30
2023-03-01T14:36:00.429Z,16.33
2023-03-01T14:38:35.909Z,15.48
2023-03-01T14:41:07.617Z,13.25
2023-03-01T14:43:37.711Z,14.27
2023-03-01T14:46:06.497Z,10.63
2023-03-01T14:48:34.725Z,11.32
2023-03-01T14:51:07.882Z,14.65
2023-03-01T14:53:49.205Z,11.75
2023-03-01T14:56:19.983Z,14.23
2023-03-01T14:58:49.571Z,12.95
2023-03-01T15:01:20.212Z,12.95
2023-03-01T15:03:50.881Z,12.75
2023-03-01T15:06:23.022Z,18.00
2023-03-01T15:08:54.636Z,15.40
2023-03-01T15:11:25.981Z,17.33
2023-03-01T15:13:55.348Z,14.18
2023-03-01T15:16:26.153Z,15.15
2023-03-01T15:18:58.823Z,15.60
2023-03-01T15:21:31.859Z,14.40
2023-03-01T15:24:06.568Z,12.43
2023-03-01T15:26:39.700Z,13.85
2023-03-01T15:29:19.674Z,13.00
2023-03-01T15:31:57.667Z,14.05
2023-03-01T15:34:28.052Z,15.13
2023-03-01T15:37:00.368Z,14.85
2023-03-01T15:39:41.177Z,14.40
2023-03-01T15:42:12.857Z,14.18
2023-03-01T15:44:46.174Z,16.00
2023-03-01T15:47:30.264Z,13.73
2023-03-01T15:50:00.125Z,14.70
2023-03-01T15:52:36.169Z,18.35
2023-03-01T15:55:09.569Z,16.75
2023-03-01T15:57:37.794Z,16.45
2023-03-01T16:00:12.399Z,14.52
2023-03-01T16:02:41.548Z,15.95
2023-03-01T16:05:20.905Z,14.45
2023-03-01T16:07:51.552Z,16.33
2023-03-01T16:10:20.907Z,15.75
2023-03-01T16:12:50.644Z,14.13
2023-03-01T16:18:45.218Z,17.00
2023-03-01T16:21:21.970Z,14.00
2023-03-01T16:23:50.705Z,12.45
2023-03-01T16:26:21.343Z,16.02
2023-03-01T16:28:50.482Z,14.27
2023-03-01T16:31:21.528Z,15.95
2023-03-01T16:33:52.594Z,15.93
2023-03-01T16:36:24.667Z,14.30
2023-03-01T16:38:53.574Z,15.98
2023-03-01T16:41:24.350Z,12.85
2023-03-01T16:43:53.209Z,16.75
2023-03-01T16:46:23.850Z,14.20
2023-03-01T16:48:54.794Z,17.15
2023-03-01T16:51:25.038Z,14.50
2023-03-01T16:53:53.361Z,13.95
2023-03-01T16:56:21.955Z,13.25
2023-03-01T16:58:50.317Z,14.25
2023-03-01T17:01:20.714Z,14.45
2023-03-01T17:03:51.395Z,16.60
2023-03-01T17:06:25.862Z,15.15
2023-03-01T17:08:54.296Z,13.30
2023-03-01T17:11:22.836Z,13.48
2023-03-01T17:13:51.206Z,13.18
2023-03-01T17:16:20.915Z,13.93
2023-03-01T17:18:50.342Z,10.85
2023-03-01T17:21:20.350Z,13.25
2023-03-01T17:23:50.485Z,12.70
2023-03-01T17:26:19.206Z,13.65
2023-03-01T17:28:52.165Z,12.35
2023-03-01T17:31:22.000Z,12.57
2023-03-01T17:33:50.531Z,12.93
2023-03-01T17:36:20.583Z,15.15
2023-03-01T17:38:49.404Z,16.92
2023-03-01T17:41:18.877Z,15.90
2023-03-01T17:43:47.559Z,18.45
2023-03-01T17:46:16.327Z,16.33
2023-03-01T17:48:45.027Z,19.30
2023-03-01T17:51:13.620Z,12.82
2023-03-01T17:53:43.321Z,12.48
2023-03-01T17:56:12.360Z,13.75
2023-03-01T17:58:40.571Z,11.25
2023-03-01T18:01:12.693Z,9.90
2023-03-01T18:03:46.601Z,24.20
2023-03-01T18:06:17.291Z,52.40
2023-03-01T18:08:49.027Z,40.10
2023-03-01T18:11:18.232Z,36.10
2023-03-01T18:13:47.756Z,22.08
2023-03-01T18:16:19.558Z,14.82
2023-03-01T18:18:48.458Z,13.35
2023-03-01T18:21:17.497Z,12.82
2023-03-01T18:23:47.317Z,11.13
2023-03-01T18:26:17.728Z,11.77
2023-03-01T18:28:47.568Z,11.82
2023-03-01T18:31:18.818Z,12.73
2023-03-01T18:33:47.512Z,13.77
2023-03-01T18:36:20.828Z,13.95
2023-03-01T18:38:51.041Z,12.93
2023-03-01T18:41:19.112Z,9.93
2023-03-01T18:43:47.408Z,13.02
2023-03-01T18:46:15.710Z,13.30
2023-03-01T18:48:45.005Z,17.60
2023-03-01T18:51:14.921Z,21.77
2023-03-01T18:53:43.492Z,13.55
2023-03-01T18:56:13.471Z,12.10
2023-03-01T18:58:43.761Z,12.45
2023-03-01T19:01:15.175Z,14.20
2023-03-01T19:03:43.678Z,12.57
2023-03-01T19:06:11.976Z,13.82
2023-03-01T19:08:42.187Z,12.65
2023-03-01T19:11:13.560Z,14.32
2023-03-01T19:13:42.641Z,15.30
2023-03-01T19:16:12.738Z,14.75
2023-03-01T19:18:42.517Z,18.15
2023-03-01T19:21:12.960Z,13.85
2023-03-01T19:23:41.109Z,16.20
2023-03-01T19:26:13.099Z,17.67
2023-03-01T19:28:42.596Z,16.35
2023-03-01T19:31:14.101Z,16.60
2023-03-01T19:33:43.256Z,13.90
2023-03-01T19:36:13.670Z,13.70
2023-03-01T19:38:43.190Z,13.88
2023-03-01T19:41:15.840Z,15.95
2023-03-01T19:43:46.494Z,15.57
2023-03-01T19:46:16.484Z,14.40
2023-03-01T19:48:45.988Z,15.02
2023-03-01T19:51:14.644Z,16.45
2023-03-01T19:53:43.183Z,22.33
2023-03-01T19:56:12.686Z,28.25
2023-03-01T19:58:41.382Z,37.60
2023-03-01T20:01:17.102Z,40.53
2023-03-01T20:03:46.340Z,24.50
2023-03-01T20:06:16.954Z,18.92
2023-03-01T20:08:45.956Z,15.75
2023-03-01T20:11:17.343Z,16.38
2023-03-01T20:13:46.261Z,16.85
2023-03-01T20:16:17.871Z,18.95
2023-03-01T20:18:46.781Z,19.15
2023-03-01T20:21:24.192Z,16.25
2023-03-01T20:23:53.495Z,15.05
2023-03-01T20:26:25.541Z,15.88
2023-03-01T20:28:57.076Z,14.32
2023-03-01T20:31:29.932Z,15.15
2023-03-01T20:33:59.872Z,16.17
2023-03-01T20:36:29.186Z,20.35
2023-03-01T20:38:58.775Z,15.18
2023-03-01T20:41:28.720Z,14.27
2023-03-01T20:43:59.482Z,14.50
2023-03-01T20:46:32.828Z,15.30
2023-03-01T20:49:02.302Z,16.15
2023-03-01T20:51:30.762Z,14.65
2023-03-01T20:53:59.358Z,14.73
2023-03-01T20:56:28.981Z,15.13
2023-03-01T20:59:04.395Z,16.17
2023-03-01T21:01:32.907Z,15.30
2023-03-01T21:04:01.508Z,14.77
2023-03-01T21:06:30.384Z,15.50
2023-03-01T21:08:59.033Z,15.80
2023-03-01T21:11:28.943Z,15.75
2023-03-01T21:13:57.980Z,17.90
2023-03-01T21:16:27.086Z,15.65
2023-03-01T21:18:55.459Z,15.32
2023-03-01T21:21:25.140Z,14.93
2023-03-01T21:23:54.843Z,16.23
2023-03-01T21:26:24.688Z,18.98
2023-03-01T21:28:56.657Z,17.00
2023-03-01T21:31:28.710Z,20.23
2023-03-01T21:33:58.925Z,22.55
2023-03-01T21:36:29.087Z,22.00
2023-03-01T21:38:57.328Z,21.70
2023-03-01T21:41:29.265Z,21.73
2023-03-01T21:44:01.292Z,20.27
2023-03-01T21:46:33.282Z,22.88
2023-03-01T21:49:02.717Z,27.10
2023-03-01T21:51:34.080Z,22.83
2023-03-01T21:54:02.456Z,17.38
2023-03-01T21:56:34.727Z,16.15
2023-03-01T21:59:05.032Z,16.88
2023-03-01T22:01:33.845Z,17.25
2023-03-01T22:04:03.464Z,18.08
2023-03-01T22:06:35.741Z,16.63
2023-03-01T22:09:07.699Z,17.05
2023-03-01T22:11:37.559Z,16.92
2023-03-01T22:14:08.015Z,16.50
2023-03-01T22:16:38.855Z,19.83
2023-03-01T22:19:09.082Z,18.10
2023-03-01T22:21:40.618Z,21.85
2023-03-01T22:24:09.759Z,18.58
2023-03-01T22:26:40.036Z,16.52
2023-03-01T22:29:12.136Z,17.92
2023-03-01T22:31:41.311Z,19.33
2023-03-01T22:34:10.921Z,21.00
2023-03-01T22:36:40.681Z,19.52
2023-03-01T22:39:09.129Z,18.08
2023-03-01T22:41:41.511Z,18.17
2023-03-01T22:44:11.128Z,19.23
2023-03-01T22:46:39.729Z,20.77
2023-03-01T22:49:08.363Z,18.08
2023-03-01T22:51:40.519Z,21.35
2023-03-01T22:54:10.689Z,19.73
2023-03-01T22:56:39.827Z,16.70
2023-03-01T22:59:19.022Z,20.02
2023-03-01T23:01:48.377Z,19.63
2023-03-01T23:04:17.827Z,18.08
2023-03-01T23:06:54.970Z,18.27
2023-03-01T23:09:27.635Z,17.25
2023-03-01T23:11:57.173Z,20.02
2023-03-01T23:14:27.871Z,20.17
2023-03-01T23:16:56.759Z,17.98
2023-03-01T23:19:25.442Z,18.38
2023-03-01T23:21:54.697Z,17.95
2023-03-01T23:24:30.591Z,21.55
2023-03-01T23:27:02.107Z,18.95
2023-03-01T23:29:32.753Z,18.92
2023-03-01T23:32:01.804Z,18.55
2023-03-01T23:34:30.740Z,21.35
2023-03-01T23:36:59.166Z,19.83
2023-03-01T23:39:30.036Z,19.15
2023-03-01T23:41:59.197Z,17.55
2023-03-01T23:44:28.137Z,15.35
2023-03-01T23:46:57.978Z,18.77
2023-03-01T23:49:28.022Z,18.95
2023-03-01T23:51:56.252Z,19.98
2023-03-01T23:54:25.821Z,21.60
2023-03-01T23:56:54.517Z,18.25
2023-03-01T23:59:26.155Z,21.60
